Terminal Aerodrome Forecast
Issued by NWS

Home | Current Version | Previous Version | Text Only | Print | Product List | Glossary On
Versions: 1 2 3 4 5 6 7 8 9 10 11 12 13 14 15 16 17 18 19 20 21 22 23 24 25 26 27 28 29 30 31 32 33 34 35 36 37 38 39 40 41 42 43 44 45 46 47
000
FTUS44 KFWD 241328 AAB
TAFDAL
TAF AMD
KDAL 241328Z 2413/2512 13007KT P6SM -RA FEW035 SCT050 BKN110
      TEMPO 2413/2415 3SM RA BR SCT008 BKN030
     FM241600 15010KT P6SM SCT020 BKN040
     FM242000 19013KT P6SM VCSH SCT020 BKN040 OVC150
     FM250000 16011KT P6SM VCSH BKN050
     FM250600 17013KT P6SM BKN015
     FM251000 17010KT 5SM BR BKN008=

USA.gov is the U.S. government's official web portal to all federal, state and local government web resources and services.